Time,TemperatureF,DewpointF,PressureIn,WindDirection,WindDirectionDegrees,WindSpeedMPH,WindSpeedGustMPH,Humidity,HourlyPrecipIn,Conditions,Clouds,dailyrainin,SoftwareType,DateUTC
2013-03-10 00:00:00,54.8,40.8,30.05,South,177,1.5,3.0,59,0.00,,,0.00,VWS V14.01,2013-03-10 05:00:00,
2013-03-10 00:05:00,54.6,41.0,30.05,South,172,1.5,3.0,60,0.00,,,0.00,VWS V14.01,2013-03-10 05:05:00,
2013-03-10 00:10:00,54.5,40.9,30.05,SSW,206,3.0,3.0,60,0.00,,,0.00,VWS V14.01,2013-03-10 05:10:00,
2013-03-10 00:15:00,54.4,40.8,30.05,South,189,4.5,4.5,60,0.00,,,0.00,VWS V14.01,2013-03-10 05:15:00,
2013-03-10 00:20:00,54.3,40.7,30.05,South,182,4.5,4.5,60,0.00,,,0.00,VWS V14.01,2013-03-10 05:20:00,
2013-03-10 00:25:00,54.3,40.7,30.05,SSW,212,1.5,4.5,60,0.00,,,0.00,VWS V14.01,2013-03-10 05:25:00,
2013-03-10 00:30:00,54.3,40.3,30.05,SSW,206,4.5,9.0,59,0.00,,,0.00,VWS V14.01,2013-03-10 05:30:00,
2013-03-10 00:35:00,54.5,40.5,30.05,SW,229,3.0,6.0,59,0.00,,,0.00,VWS V14.01,2013-03-10 05:35:00,
2013-03-10 00:40:00,54.6,40.6,30.05,SSW,203,1.5,3.0,59,0.00,,,0.00,VWS V14.01,2013-03-10 05:40:00,
2013-03-10 00:45:00,54.6,40.1,30.05,SSW,213,4.5,6.0,58,0.00,,,0.00,VWS V14.01,2013-03-10 05:45:00,
2013-03-10 00:50:00,54.8,40.3,30.05,SSW,212,3.0,4.5,58,0.00,,,0.00,VWS V14.01,2013-03-10 05:50:00,
2013-03-10 00:55:00,54.8,40.3,30.05,SW,215,3.0,6.0,58,0.00,,,0.00,VWS V14.01,2013-03-10 05:55:00,
2013-03-10 01:00:00,54.7,40.2,30.04,SSW,194,3.0,4.5,58,0.00,,,0.00,VWS V14.01,2013-03-10 06:00:00,
2013-03-10 01:05:00,54.6,40.1,30.05,South,189,3.0,4.5,58,0.00,,,0.00,VWS V14.01,2013-03-10 06:05:00,
2013-03-10 01:10:00,54.5,40.0,30.04,SSE,157,4.5,6.0,58,0.00,,,0.00,VWS V14.01,2013-03-10 06:10:00,
2013-03-10 01:15:00,54.5,40.0,30.04,SSW,198,3.0,7.5,58,0.00,,,0.00,VWS V14.01,2013-03-10 06:15:00,
2013-03-10 01:20:00,54.4,40.0,30.04,South,177,6.0,6.0,58,0.00,,,0.00,VWS V14.01,2013-03-10 06:20:00,
2013-03-10 01:25:00,54.3,39.8,30.04,South,182,6.0,10.5,58,0.00,,,0.00,VWS V14.01,2013-03-10 06:25:00,
2013-03-10 01:30:00,54.3,39.8,30.04,SE,146,4.5,9.0,58,0.00,,,0.00,VWS V14.01,2013-03-10 06:30:00,
2013-03-10 01:35:00,54.3,39.8,30.04,SW,223,6.0,6.0,58,0.00,,,0.00,VWS V14.01,2013-03-10 06:35:00,
2013-03-10 01:40:00,54.3,39.8,30.04,SE,134,4.5,6.0,58,0.00,,,0.00,VWS V14.01,2013-03-10 06:40:00,
2013-03-10 01:45:00,54.2,39.8,30.04,SSW,203,7.5,7.5,58,0.00,,,0.00,VWS V14.01,2013-03-10 06:45:00,
2013-03-10 01:50:00,54.2,39.8,30.03,SW,231,3.0,6.0,58,0.00,,,0.00,VWS V14.01,2013-03-10 06:50:00,
2013-03-10 01:55:00,54.1,39.7,30.03,SW,220,7.5,9.0,58,0.00,,,0.00,VWS V14.01,2013-03-10 06:55:00,
2013-03-10 03:00:00,54.1,39.2,30.03,SE,127,4.5,7.5,57,0.00,,,0.00,VWS V14.01,2013-03-10 07:00:00,
2013-03-10 03:05:00,54.1,39.7,30.03,SW,215,1.5,1.5,58,0.00,,,0.00,VWS V14.01,2013-03-10 07:05:00,
2013-03-10 03:10:00,54.1,39.2,30.03,SSE,149,4.5,4.5,57,0.00,,,0.00,VWS V14.01,2013-03-10 07:10:00,
2013-03-10 03:15:00,54.1,39.2,30.03,SE,146,7.5,7.5,57,0.00,,,0.00,VWS V14.01,2013-03-10 07:15:00,
2013-03-10 03:20:00,54.1,39.2,30.03,SSW,196,3.0,4.5,57,0.00,,,0.00,VWS V14.01,2013-03-10 07:20:00,
2013-03-10 03:25:00,54.0,39.1,30.03,SSW,209,1.5,3.0,57,0.00,,,0.00,VWS V14.01,2013-03-10 07:25:00,
2013-03-10 03:30:00,53.7,38.8,30.03,SSE,150,1.5,1.5,57,0.00,,,0.00,VWS V14.01,2013-03-10 07:30:00,
2013-03-10 03:35:00,53.4,39.0,30.03,SSE,150,1.5,3.0,58,0.00,,,0.00,VWS V14.01,2013-03-10 07:35:00,
2013-03-10 03:40:00,53.2,38.8,30.02,South,174,6.0,6.0,58,0.00,,,0.00,VWS V14.01,2013-03-10 07:40:00,
2013-03-10 03:45:00,53.1,38.7,30.02,SSW,196,6.0,6.0,58,0.00,,,0.00,VWS V14.01,2013-03-10 07:45:00,
2013-03-10 03:50:00,53.0,38.6,30.02,SSW,195,4.5,6.0,58,0.00,,,0.00,VWS V14.01,2013-03-10 07:50:00,
2013-03-10 03:55:00,53.0,38.6,30.02,SSE,165,3.0,3.0,58,0.00,,,0.00,VWS V14.01,2013-03-10 07:55:00,
2013-03-10 04:00:00,53.0,38.6,30.02,SW,215,9.0,9.0,58,0.00,,,0.00,VWS V14.01,2013-03-10 08:00:00,
2013-03-10 04:05:00,53.0,38.6,30.01,SSW,206,4.5,4.5,58,0.00,,,0.00,VWS V14.01,2013-03-10 08:05:00,
2013-03-10 04:10:00,53.0,38.2,30.01,SSW,202,3.0,3.0,57,0.00,,,0.00,VWS V14.01,2013-03-10 08:10:00,
2013-03-10 04:15:00,53.0,38.2,30.01,SW,215,4.5,4.5,57,0.00,,,0.00,VWS V14.01,2013-03-10 08:15:00,
2013-03-10 04:20:00,53.0,38.6,30.01,SSW,210,9.0,9.0,58,0.00,,,0.00,VWS V14.01,2013-03-10 08:20:00,
2013-03-10 04:25:00,53.0,38.6,30.01,SSW,209,4.5,4.5,58,0.00,,,0.00,VWS V14.01,2013-03-10 08:25:00,
2013-03-10 04:30:00,53.1,38.7,30.00,SSE,163,4.5,4.5,58,0.00,,,0.00,VWS V14.01,2013-03-10 08:30:00,
2013-03-10 04:35:00,53.0,38.6,30.00,SSW,206,3.0,10.5,58,0.00,,,0.00,VWS V14.01,2013-03-10 08:35:00,
2013-03-10 04:40:00,53.1,38.7,30.00,SSE,158,10.5,10.5,58,0.00,,,0.00,VWS V14.01,2013-03-10 08:40:00,
2013-03-10 04:45:00,53.1,38.7,30.00,SSE,160,7.5,10.5,58,0.00,,,0.00,VWS V14.01,2013-03-10 08:45:00,
2013-03-10 04:50:00,53.2,38.8,30.00,South,171,3.0,4.5,58,0.00,,,0.00,VWS V14.01,2013-03-10 08:50:00,
2013-03-10 04:55:00,53.1,38.7,30.00,SSW,209,4.5,7.5,58,0.00,,,0.00,VWS V14.01,2013-03-10 08:55:00,
2013-03-10 05:00:00,53.2,38.8,30.00,SE,143,3.0,4.5,58,0.00,,,0.00,VWS V14.01,2013-03-10 09:00:00,
2013-03-10 05:05:00,53.1,38.7,30.00,SW,220,6.0,7.5,58,0.00,,,0.00,VWS V14.01,2013-03-10 09:05:00,
2013-03-10 05:10:00,53.1,38.7,30.00,South,186,4.5,6.0,58,0.00,,,0.00,VWS V14.01,2013-03-10 09:10:00,
2013-03-10 05:15:00,53.2,38.8,30.00,South,182,3.0,7.5,58,0.00,,,0.00,VWS V14.01,2013-03-10 09:15:00,
2013-03-10 05:20:00,53.1,38.7,29.99,SE,125,3.0,6.0,58,0.00,,,0.00,VWS V14.01,2013-03-10 09:20:00,
2013-03-10 05:25:00,53.0,38.6,29.99,South,171,6.0,6.0,58,0.00,,,0.00,VWS V14.01,2013-03-10 09:25:00,
2013-03-10 05:30:00,53.1,38.7,30.00,SSW,208,9.0,10.5,58,0.00,,,0.00,VWS V14.01,2013-03-10 09:30:00,
2013-03-10 05:35:00,53.1,38.7,30.00,SSW,204,4.5,7.5,58,0.00,,,0.00,VWS V14.01,2013-03-10 09:35:00,
2013-03-10 05:40:00,53.1,38.7,30.00,SSW,202,3.0,7.5,58,0.00,,,0.00,VWS V14.01,2013-03-10 09:40:00,
2013-03-10 05:45:00,53.1,38.7,30.00,SW,216,6.0,6.0,58,0.00,,,0.00,VWS V14.01,2013-03-10 09:45:00,
2013-03-10 05:49:00,53.0,38.6,30.00,South,186,4.5,4.5,58,0.00,,,0.00,VWS V14.01,2013-03-10 09:49:00,
2013-03-10 05:54:00,52.9,39.0,30.01,SSW,206,3.0,4.5,59,0.00,,,0.00,VWS V14.01,2013-03-10 09:54:00,
2013-03-10 05:59:00,52.9,39.0,30.01,WSW,243,1.5,1.5,59,0.00,,,0.00,VWS V14.01,2013-03-10 09:59:00,
2013-03-10 06:04:00,52.8,38.9,30.01,SW,230,1.5,3.0,59,0.00,,,0.00,VWS V14.01,2013-03-10 10:04:00,
2013-03-10 06:10:00,52.8,38.9,30.01,SSW,206,1.5,3.0,59,0.00,,,0.00,VWS V14.01,2013-03-10 10:10:00,
2013-03-10 06:14:00,52.8,38.5,30.01,South,182,4.5,6.0,58,0.00,,,0.00,VWS V14.01,2013-03-10 10:14:00,
2013-03-10 06:19:00,52.8,38.9,30.01,South,186,3.0,3.0,59,0.00,,,0.00,VWS V14.01,2013-03-10 10:19:00,
2013-03-10 06:25:00,52.8,38.9,30.01,South,172,6.0,6.0,59,0.00,,,0.00,VWS V14.01,2013-03-10 10:25:00,
2013-03-10 06:29:00,53.0,38.6,30.00,SSW,211,6.0,6.0,58,0.00,,,0.00,VWS V14.01,2013-03-10 10:29:00,
2013-03-10 06:34:00,53.1,38.7,30.00,SSW,208,6.0,13.5,58,0.00,,,0.00,VWS V14.01,2013-03-10 10:34:00,
2013-03-10 06:39:00,53.4,39.0,30.01,WSW,239,1.5,3.0,58,0.00,,,0.00,VWS V14.01,2013-03-10 10:39:00,
2013-03-10 06:44:00,53.4,38.6,30.01,SW,216,3.0,6.0,57,0.00,,,0.00,VWS V14.01,2013-03-10 10:44:00,
2013-03-10 06:49:00,53.7,38.8,30.00,SSE,167,9.0,9.0,57,0.00,,,0.00,VWS V14.01,2013-03-10 10:49:00,
2013-03-10 06:54:00,53.8,38.9,30.01,South,191,9.0,12.0,57,0.00,,,0.00,VWS V14.01,2013-03-10 10:54:00,
2013-03-10 06:59:00,54.0,38.7,30.01,SSE,160,12.0,12.0,56,0.00,,,0.00,VWS V14.01,2013-03-10 10:59:00,
2013-03-10 07:04:00,54.1,38.8,30.01,South,171,3.0,4.5,56,0.00,,,0.00,VWS V14.01,2013-03-10 11:04:00,
2013-03-10 07:09:00,54.1,38.8,30.02,SW,222,3.0,4.5,56,0.00,,,0.00,VWS V14.01,2013-03-10 11:09:00,
2013-03-10 07:14:00,54.0,39.1,30.01,SSW,213,1.5,3.0,57,0.00,,,0.00,VWS V14.01,2013-03-10 11:14:00,
2013-03-10 07:19:00,53.8,38.9,30.02,SW,231,4.5,4.5,57,0.00,,,0.00,VWS V14.01,2013-03-10 11:19:00,
2013-03-10 07:24:00,53.7,38.8,30.02,South,184,1.5,3.0,57,0.00,,,0.00,VWS V14.01,2013-03-10 11:24:00,
2013-03-10 07:29:00,53.6,38.8,30.02,SSW,206,3.0,3.0,57,0.00,,,0.00,VWS V14.01,2013-03-10 11:29:00,
2013-03-10 07:34:00,53.5,38.7,30.02,SSW,210,1.5,1.5,57,0.00,,,0.00,VWS V14.01,2013-03-10 11:34:00,
2013-03-10 07:39:00,53.3,38.9,30.02,South,186,1.5,1.5,58,0.00,,,0.00,VWS V14.01,2013-03-10 11:39:00,
2013-03-10 07:44:00,53.1,38.7,30.02,SSE,165,1.5,1.5,58,0.00,,,0.00,VWS V14.01,2013-03-10 11:44:00,
2013-03-10 07:49:00,53.0,38.6,30.02,South,185,1.5,3.0,58,0.00,,,0.00,VWS V14.01,2013-03-10 11:49:00,
2013-03-10 07:54:00,52.9,38.5,30.03,South,186,1.5,1.5,58,0.00,,,0.00,VWS V14.01,2013-03-10 11:54:00,
2013-03-10 07:59:00,52.8,38.9,30.03,South,185,3.0,4.5,59,0.00,,,0.00,VWS V14.01,2013-03-10 11:59:00,
2013-03-10 08:04:00,52.7,38.8,30.03,SSE,161,1.5,3.0,59,0.00,,,0.00,VWS V14.01,2013-03-10 12:04:00,
2013-03-10 08:09:00,52.5,39.0,30.03,South,184,1.5,3.0,60,0.00,,,0.00,VWS V14.01,2013-03-10 12:09:00,
2013-03-10 08:14:00,52.4,39.4,30.03,SSW,198,1.5,1.5,61,0.00,,,0.00,VWS V14.01,2013-03-10 12:14:00,
2013-03-10 08:19:00,51.9,39.7,30.04,SSW,208,1.5,1.5,63,0.00,,,0.00,VWS V14.01,2013-03-10 12:19:00,
2013-03-10 08:24:00,51.5,38.9,30.04,SSW,208,1.5,3.0,62,0.00,,,0.00,VWS V14.01,2013-03-10 12:24:00,
2013-03-10 08:30:00,51.6,39.0,30.04,SSW,201,1.5,1.5,62,0.00,,,0.00,VWS V14.01,2013-03-10 12:30:00,
2013-03-10 08:35:00,52.0,39.0,30.04,SSW,205,3.0,4.5,61,0.00,,,0.00,VWS V14.01,2013-03-10 12:35:00,
2013-03-10 08:40:00,52.7,39.2,30.04,SE,134,1.5,3.0,60,0.00,,,0.00,VWS V14.01,2013-03-10 12:40:00,
2013-03-10 08:45:00,53.0,39.1,30.04,SSW,201,3.0,3.0,59,0.00,,,0.00,VWS V14.01,2013-03-10 12:45:00,
2013-03-10 08:50:00,53.3,39.3,30.04,SE,143,1.5,1.5,59,0.00,,,0.00,VWS V14.01,2013-03-10 12:50:00,
2013-03-10 08:55:00,53.6,39.6,30.04,SE,146,1.5,1.5,59,0.00,,,0.00,VWS V14.01,2013-03-10 12:55:00,
2013-03-10 09:00:00,53.9,39.9,30.03,SE,130,1.5,1.5,59,0.00,,,0.00,VWS V14.01,2013-03-10 13:00:00,
2013-03-10 09:05:00,54.0,40.0,30.03,SE,136,3.0,3.0,59,0.00,,,0.00,VWS V14.01,2013-03-10 13:05:00,
2013-03-10 09:10:00,54.0,40.0,30.03,ESE,106,3.0,3.0,59,0.00,,,0.00,VWS V14.01,2013-03-10 13:10:00,
2013-03-10 09:15:00,53.8,40.3,30.03,East,99,3.0,3.0,60,0.00,,,0.00,VWS V14.01,2013-03-10 13:15:00,
2013-03-10 09:20:00,53.7,40.6,30.03,East,100,1.5,1.5,61,0.00,,,0.00,VWS V14.01,2013-03-10 13:20:00,
2013-03-10 09:25:00,53.7,41.0,30.03,ESE,119,1.5,1.5,62,0.00,,,0.00,VWS V14.01,2013-03-10 13:25:00,
2013-03-10 09:30:00,53.7,40.6,30.03,East,101,3.0,4.5,61,0.00,,,0.00,VWS V14.01,2013-03-10 13:30:00,
2013-03-10 09:35:00,53.8,40.7,30.02,East,99,3.0,3.0,61,0.00,,,0.00,VWS V14.01,2013-03-10 13:35:00,
2013-03-10 09:40:00,54.0,40.9,30.03,East,98,1.5,1.5,61,0.00,,,0.00,VWS V14.01,2013-03-10 13:40:00,
2013-03-10 09:45:00,54.1,41.0,30.03,SE,127,1.5,1.5,61,0.00,,,0.00,VWS V14.01,2013-03-10 13:45:00,
2013-03-10 09:50:00,54.3,40.7,30.02,ESE,119,3.0,6.0,60,0.00,,,0.00,VWS V14.01,2013-03-10 13:50:00,
2013-03-10 09:55:00,54.5,40.9,30.03,SE,125,1.5,3.0,60,0.00,,,0.00,VWS V14.01,2013-03-10 13:55:00,
2013-03-10 10:00:00,54.8,41.6,30.03,East,96,4.5,6.0,61,0.00,,,0.00,VWS V14.01,2013-03-10 14:00:00,
2013-03-10 10:05:00,55.0,41.4,30.03,SSE,158,4.5,4.5,60,0.00,,,0.00,VWS V14.01,2013-03-10 14:05:00,
2013-03-10 10:10:00,55.3,41.7,30.02,East,85,4.5,4.5,60,0.00,,,0.00,VWS V14.01,2013-03-10 14:10:00,
2013-03-10 10:15:00,55.5,41.4,30.02,South,186,1.5,4.5,59,0.00,,,0.00,VWS V14.01,2013-03-10 14:15:00,
2013-03-10 10:20:00,55.8,41.7,30.02,East,101,6.0,6.0,59,0.00,,,0.00,VWS V14.01,2013-03-10 14:20:00,
2013-03-10 10:25:00,56.1,41.5,30.01,ESE,111,3.0,3.0,58,0.00,,,0.00,VWS V14.01,2013-03-10 14:25:00,
2013-03-10 10:30:00,56.3,41.7,30.01,South,184,7.5,9.0,58,0.00,,,0.00,VWS V14.01,2013-03-10 14:30:00,
2013-03-10 10:35:00,56.5,41.5,30.00,South,182,7.5,7.5,57,0.00,,,0.00,VWS V14.01,2013-03-10 14:35:00,
2013-03-10 10:40:00,56.8,41.3,30.01,SE,146,6.0,6.0,56,0.00,,,0.00,VWS V14.01,2013-03-10 14:40:00,
2013-03-10 10:45:00,57.1,41.6,30.01,SE,127,3.0,3.0,56,0.00,,,0.00,VWS V14.01,2013-03-10 14:45:00,
2013-03-10 10:50:00,57.5,41.9,30.01,South,189,1.5,1.5,56,0.00,,,0.00,VWS V14.01,2013-03-10 14:50:00,
2013-03-10 10:55:00,57.8,41.3,30.01,South,182,3.0,6.0,54,0.00,,,0.00,VWS V14.01,2013-03-10 14:55:00,
2013-03-10 11:00:00,58.0,41.5,30.01,SSE,151,6.0,6.0,54,0.00,,,0.00,VWS V14.01,2013-03-10 15:00:00,
2013-03-10 11:05:00,58.5,42.4,30.01,South,179,4.5,4.5,55,0.00,,,0.00,VWS V14.01,2013-03-10 15:05:00,
2013-03-10 11:10:00,58.7,41.6,30.00,East,99,4.5,6.0,53,0.00,,,0.00,VWS V14.01,2013-03-10 15:10:00,
2013-03-10 11:15:00,58.9,41.8,30.00,SSW,206,6.0,9.0,53,0.00,,,0.00,VWS V14.01,2013-03-10 15:15:00,
2013-03-10 11:20:00,59.1,42.0,30.00,SSE,151,1.5,3.0,53,0.00,,,0.00,VWS V14.01,2013-03-10 15:20:00,
2013-03-10 11:25:00,59.5,41.9,30.00,SE,127,6.0,7.5,52,0.00,,,0.00,VWS V14.01,2013-03-10 15:25:00,
2013-03-10 11:30:00,59.9,42.2,30.00,SSW,210,6.0,6.0,52,0.00,,,0.00,VWS V14.01,2013-03-10 15:30:00,
2013-03-10 11:35:00,60.2,42.5,30.01,SSW,210,6.0,10.5,52,0.00,,,0.00,VWS V14.01,2013-03-10 15:35:00,
2013-03-10 11:40:00,60.3,42.1,30.01,South,189,15.0,15.0,51,0.00,,,0.00,VWS V14.01,2013-03-10 15:40:00,
2013-03-10 11:45:00,60.3,41.6,30.02,South,188,6.0,6.0,50,0.00,,,0.00,VWS V14.01,2013-03-10 15:45:00,
2013-03-10 11:50:00,60.7,42.0,30.01,SW,223,7.5,10.5,50,0.00,,,0.00,VWS V14.01,2013-03-10 15:50:00,
2013-03-10 11:55:00,61.2,42.4,30.01,SW,217,7.5,9.0,50,0.00,,,0.00,VWS V14.01,2013-03-10 15:55:00,
2013-03-10 12:00:00,61.8,41.9,30.01,SSE,160,7.5,15.0,48,0.00,,,0.00,VWS V14.01,2013-03-10 16:00:00,
2013-03-10 12:05:00,61.9,41.5,30.00,WSW,253,6.0,6.0,47,0.00,,,0.00,VWS V14.01,2013-03-10 16:05:00,
2013-03-10 12:10:00,62.0,42.1,30.00,SSW,212,10.5,12.0,48,0.00,,,0.00,VWS V14.01,2013-03-10 16:10:00,
2013-03-10 12:15:00,62.2,42.3,30.00,SW,216,6.0,7.5,48,0.00,,,0.00,VWS V14.01,2013-03-10 16:15:00,
2013-03-10 12:20:00,62.3,41.8,30.00,SE,136,6.0,7.5,47,0.00,,,0.00,VWS V14.01,2013-03-10 16:20:00,
2013-03-10 12:25:00,63.0,43.0,30.00,SW,223,6.0,7.5,48,0.00,,,0.00,VWS V14.01,2013-03-10 16:25:00,
2013-03-10 12:30:00,63.8,42.6,30.00,ESE,113,9.0,13.5,46,0.00,,,0.00,VWS V14.01,2013-03-10 16:30:00,
2013-03-10 12:35:00,64.1,42.3,30.00,WSW,250,9.0,10.5,45,0.00,,,0.00,VWS V14.01,2013-03-10 16:35:00,
2013-03-10 12:40:00,64.7,42.9,29.99,South,191,12.0,13.5,45,0.00,,,0.00,VWS V14.01,2013-03-10 16:40:00,
2013-03-10 12:45:00,65.1,43.8,29.98,SSE,168,3.0,6.0,46,0.00,,,0.00,VWS V14.01,2013-03-10 16:45:00,
2013-03-10 12:50:00,65.1,42.7,29.98,SE,145,4.5,12.0,44,0.00,,,0.00,VWS V14.01,2013-03-10 16:50:00,
2013-03-10 12:55:00,65.3,42.2,29.98,SSW,205,13.5,13.5,43,0.00,,,0.00,VWS V14.01,2013-03-10 16:55:00,
2013-03-10 13:00:00,65.5,42.4,29.98,South,191,9.0,16.5,43,0.00,,,0.00,VWS V14.01,2013-03-10 17:00:00,
2013-03-10 13:05:00,65.6,43.1,29.98,WSW,247,3.0,6.0,44,0.00,,,0.00,VWS V14.01,2013-03-10 17:05:00,
2013-03-10 13:10:00,65.7,41.4,29.98,SW,226,9.0,19.5,41,0.00,,,0.00,VWS V14.01,2013-03-10 17:10:00,
2013-03-10 13:15:00,65.7,42.0,29.98,SE,125,4.5,12.0,42,0.00,,,0.00,VWS V14.01,2013-03-10 17:15:00,
2013-03-10 13:20:00,65.9,42.2,29.98,West,269,6.0,6.0,42,0.00,,,0.00,VWS V14.01,2013-03-10 17:20:00,
2013-03-10 13:25:00,66.2,42.5,29.98,SW,230,4.5,4.5,42,0.00,,,0.00,VWS V14.01,2013-03-10 17:25:00,
2013-03-10 13:30:00,66.5,41.5,29.98,SE,143,9.0,15.0,40,0.00,,,0.00,VWS V14.01,2013-03-10 17:30:00,
2013-03-10 13:35:00,66.4,42.0,29.98,SSW,192,7.5,15.0,41,0.00,,,0.00,VWS V14.01,2013-03-10 17:35:00,
2013-03-10 13:40:00,66.8,43.0,29.98,SW,220,9.0,9.0,42,0.00,,,0.00,VWS V14.01,2013-03-10 17:40:00,
2013-03-10 13:45:00,66.7,41.6,29.98,South,186,6.0,15.0,40,0.00,,,0.00,VWS V14.01,2013-03-10 17:45:00,
2013-03-10 13:50:00,66.8,41.1,29.97,SW,219,7.5,12.0,39,0.00,,,0.00,VWS V14.01,2013-03-10 17:50:00,
2013-03-10 13:55:00,67.1,42.6,29.96,SSE,149,3.0,3.0,41,0.00,,,0.00,VWS V14.01,2013-03-10 17:55:00,
2013-03-10 14:00:00,67.2,43.4,29.96,SSE,165,7.5,9.0,42,0.00,,,0.00,VWS V14.01,2013-03-10 18:00:00,
2013-03-10 14:05:00,67.2,44.0,29.96,ENE,66,7.5,7.5,43,0.00,,,0.00,VWS V14.01,2013-03-10 18:05:00,
2013-03-10 14:10:00,67.4,43.5,29.96,SW,216,15.0,15.0,42,0.00,,,0.00,VWS V14.01,2013-03-10 18:10:00,
2013-03-10 14:15:00,67.2,43.4,29.96,ESE,113,4.5,12.0,42,0.00,,,0.00,VWS V14.01,2013-03-10 18:15:00,
2013-03-10 14:20:00,67.1,43.9,29.96,South,184,3.0,9.0,43,0.00,,,0.00,VWS V14.01,2013-03-10 18:20:00,
2013-03-10 14:25:00,67.3,44.1,29.95,North,2,6.0,10.5,43,0.00,,,0.00,VWS V14.01,2013-03-10 18:25:00,
2013-03-10 14:30:00,67.3,44.1,29.95,ENE,78,4.5,7.5,43,0.00,,,0.00,VWS V14.01,2013-03-10 18:30:00,
2013-03-10 14:35:00,67.8,43.9,29.94,SSE,168,10.5,15.0,42,0.00,,,0.00,VWS V14.01,2013-03-10 18:35:00,
2013-03-10 14:40:00,68.3,42.4,29.94,SSE,151,3.0,7.5,39,0.00,,,0.00,VWS V14.01,2013-03-10 18:40:00,
2013-03-10 14:45:00,68.9,43.6,29.94,West,260,7.5,9.0,40,0.00,,,0.00,VWS V14.01,2013-03-10 18:45:00,
2013-03-10 14:50:00,69.1,44.4,29.93,East,85,4.5,7.5,41,0.00,,,0.00,VWS V14.01,2013-03-10 18:50:00,
2013-03-10 14:55:00,68.8,42.9,29.94,SSW,205,6.0,9.0,39,0.00,,,0.00,VWS V14.01,2013-03-10 18:55:00,
2013-03-10 15:00:00,69.1,44.4,29.93,SW,234,1.5,7.5,41,0.00,,,0.00,VWS V14.01,2013-03-10 19:00:00,
2013-03-10 15:05:00,70.0,44.6,29.93,SSE,168,3.0,7.5,40,0.00,,,0.00,VWS V14.01,2013-03-10 19:05:00,
2013-03-10 15:10:00,70.3,44.9,29.92,SSE,149,7.5,12.0,40,0.00,,,0.00,VWS V14.01,2013-03-10 19:10:00,
2013-03-10 15:15:00,70.5,44.4,29.92,WSW,241,9.0,9.0,39,0.00,,,0.00,VWS V14.01,2013-03-10 19:15:00,
2013-03-10 15:20:00,70.9,43.4,29.91,SSW,213,12.0,13.5,37,0.00,,,0.00,VWS V14.01,2013-03-10 19:20:00,
2013-03-10 15:24:00,70.4,42.2,29.90,South,184,7.5,10.5,36,0.00,,,0.00,VWS V14.01,2013-03-10 19:24:00,
2013-03-10 15:29:00,70.4,40.7,29.90,SSW,196,15.0,22.5,34,0.00,,,0.00,VWS V14.01,2013-03-10 19:29:00,
2013-03-10 15:35:00,70.3,41.4,29.90,South,179,10.5,16.5,35,0.00,,,0.00,VWS V14.01,2013-03-10 19:35:00,
2013-03-10 15:40:00,70.2,41.3,29.90,SW,229,9.0,9.0,35,0.00,,,0.00,VWS V14.01,2013-03-10 19:40:00,
2013-03-10 15:45:00,69.5,40.7,29.89,SSW,205,9.0,13.5,35,0.00,,,0.00,VWS V14.01,2013-03-10 19:45:00,
2013-03-10 15:50:00,69.5,41.4,29.89,SW,234,18.0,18.0,36,0.00,,,0.00,VWS V14.01,2013-03-10 19:50:00,
2013-03-10 15:55:00,69.5,42.1,29.90,SW,216,3.0,6.0,37,0.00,,,0.00,VWS V14.01,2013-03-10 19:55:00,
2013-03-10 16:00:00,69.4,42.0,29.90,SSW,203,7.5,9.0,37,0.00,,,0.00,VWS V14.01,2013-03-10 20:00:00,
2013-03-10 16:05:00,69.0,41.7,29.90,SSW,205,9.0,13.5,37,0.00,,,0.00,VWS V14.01,2013-03-10 20:05:00,
2013-03-10 16:10:00,68.8,42.2,29.90,SSE,167,3.0,10.5,38,0.00,,,0.00,VWS V14.01,2013-03-10 20:10:00,
2013-03-10 16:15:00,68.6,42.0,29.90,SSE,151,10.5,15.0,38,0.00,,,0.00,VWS V14.01,2013-03-10 20:15:00,
2013-03-10 16:20:00,68.6,42.7,29.90,SSE,156,6.0,9.0,39,0.00,,,0.00,VWS V14.01,2013-03-10 20:20:00,
2013-03-10 16:25:00,68.6,42.7,29.90,SSE,156,7.5,12.0,39,0.00,,,0.00,VWS V14.01,2013-03-10 20:25:00,
2013-03-10 16:30:00,68.7,42.1,29.90,SW,216,10.5,15.0,38,0.00,,,0.00,VWS V14.01,2013-03-10 20:30:00,
2013-03-10 16:35:00,68.7,42.8,29.90,SW,233,1.5,7.5,39,0.00,,,0.00,VWS V14.01,2013-03-10 20:35:00,
2013-03-10 16:40:00,68.6,41.3,29.89,SSW,212,15.0,15.0,37,0.00,,,0.00,VWS V14.01,2013-03-10 20:40:00,
2013-03-10 16:45:00,68.6,42.0,29.89,South,191,6.0,6.0,38,0.00,,,0.00,VWS V14.01,2013-03-10 20:45:00,
2013-03-10 16:50:00,68.7,42.8,29.90,SW,228,10.5,10.5,39,0.00,,,0.00,VWS V14.01,2013-03-10 20:50:00,
2013-03-10 16:55:00,68.6,42.0,29.89,South,182,7.5,7.5,38,0.00,,,0.00,VWS V14.01,2013-03-10 20:55:00,
2013-03-10 17:00:00,68.5,42.6,29.89,SSE,167,3.0,4.5,39,0.00,,,0.00,VWS V14.01,2013-03-10 21:00:00,
2013-03-10 17:05:00,68.5,42.6,29.88,SW,217,6.0,6.0,39,0.00,,,0.00,VWS V14.01,2013-03-10 21:05:00,
2013-03-10 17:10:00,68.5,42.6,29.89,South,185,7.5,10.5,39,0.00,,,0.00,VWS V14.01,2013-03-10 21:10:00,
2013-03-10 17:15:00,68.4,42.5,29.88,SSW,212,3.0,4.5,39,0.00,,,0.00,VWS V14.01,2013-03-10 21:15:00,
2013-03-10 17:20:00,68.4,41.8,29.88,East,90,9.0,16.5,38,0.00,,,0.00,VWS V14.01,2013-03-10 21:20:00,
2013-03-10 17:25:00,68.4,41.8,29.87,SE,136,6.0,10.5,38,0.00,,,0.00,VWS V14.01,2013-03-10 21:25:00,
2013-03-10 17:30:00,68.3,41.7,29.86,SSE,156,3.0,9.0,38,0.00,,,0.00,VWS V14.01,2013-03-10 21:30:00,
2013-03-10 17:35:00,68.3,41.7,29.87,SSW,195,1.5,1.5,38,0.00,,,0.00,VWS V14.01,2013-03-10 21:35:00,
2013-03-10 17:40:00,68.2,42.3,29.86,SSE,159,9.0,13.5,39,0.00,,,0.00,VWS V14.01,2013-03-10 21:40:00,
2013-03-10 17:45:00,68.1,42.2,29.86,SSE,156,7.5,7.5,39,0.00,,,0.00,VWS V14.01,2013-03-10 21:45:00,
2013-03-10 17:50:00,67.9,42.1,29.85,SSW,203,4.5,12.0,39,0.00,,,0.00,VWS V14.01,2013-03-10 21:50:00,
2013-03-10 17:55:00,67.8,41.3,29.85,SSE,151,6.0,12.0,38,0.00,,,0.00,VWS V14.01,2013-03-10 21:55:00,
2013-03-10 18:00:00,67.7,41.2,29.85,South,178,16.5,16.5,38,0.00,,,0.00,VWS V14.01,2013-03-10 22:00:00,
2013-03-10 18:05:00,67.6,41.8,29.84,SSW,209,7.5,10.5,39,0.00,,,0.00,VWS V14.01,2013-03-10 22:05:00,
2013-03-10 18:10:00,67.5,41.7,29.85,SSE,163,9.0,9.0,39,0.00,,,0.00,VWS V14.01,2013-03-10 22:10:00,
2013-03-10 18:15:00,67.4,41.6,29.85,SSW,212,7.5,9.0,39,0.00,,,0.00,VWS V14.01,2013-03-10 22:15:00,
2013-03-10 18:20:00,67.3,41.5,29.85,SE,146,9.0,9.0,39,0.00,,,0.00,VWS V14.01,2013-03-10 22:20:00,
2013-03-10 18:25:00,67.2,41.4,29.85,South,170,7.5,7.5,39,0.00,,,0.00,VWS V14.01,2013-03-10 22:25:00,
2013-03-10 18:30:00,67.0,41.2,29.85,SSW,203,3.0,3.0,39,0.00,,,0.00,VWS V14.01,2013-03-10 22:30:00,
2013-03-10 18:35:00,66.8,41.1,29.85,SW,220,7.5,10.5,39,0.00,,,0.00,VWS V14.01,2013-03-10 22:35:00,
2013-03-10 18:40:00,66.6,40.9,29.84,SW,226,10.5,13.5,39,0.00,,,0.00,VWS V14.01,2013-03-10 22:40:00,
2013-03-10 18:45:00,66.4,41.4,29.84,SE,146,7.5,7.5,40,0.00,,,0.00,VWS V14.01,2013-03-10 22:45:00,
2013-03-10 18:50:00,66.2,41.8,29.84,WSW,243,7.5,7.5,41,0.00,,,0.00,VWS V14.01,2013-03-10 22:50:00,
2013-03-10 18:55:00,66.0,41.7,29.84,East,89,9.0,12.0,41,0.00,,,0.00,VWS V14.01,2013-03-10 22:55:00,
2013-03-10 19:00:00,65.8,41.5,29.84,SSW,195,7.5,13.5,41,0.00,,,0.00,VWS V14.01,2013-03-10 23:00:00,
2013-03-10 19:05:00,65.5,41.8,29.83,South,175,9.0,9.0,42,0.00,,,0.00,VWS V14.01,2013-03-10 23:05:00,
2013-03-10 19:10:00,65.3,41.6,29.83,South,175,6.0,7.5,42,0.00,,,0.00,VWS V14.01,2013-03-10 23:10:00,
2013-03-10 19:15:00,65.3,41.6,29.83,SE,133,4.5,9.0,42,0.00,,,0.00,VWS V14.01,2013-03-10 23:15:00,
2013-03-10 19:20:00,65.2,41.5,29.83,SSE,165,7.5,9.0,42,0.00,,,0.00,VWS V14.01,2013-03-10 23:20:00,
2013-03-10 19:25:00,65.1,42.1,29.83,South,188,4.5,4.5,43,0.00,,,0.00,VWS V14.01,2013-03-10 23:25:00,
2013-03-10 19:30:00,65.0,42.0,29.83,South,184,6.0,10.5,43,0.00,,,0.00,VWS V14.01,2013-03-10 23:30:00,
2013-03-10 19:35:00,64.9,41.9,29.84,SW,215,7.5,7.5,43,0.00,,,0.00,VWS V14.01,2013-03-10 23:35:00,
2013-03-10 19:40:00,64.7,41.7,29.83,SW,224,3.0,7.5,43,0.00,,,0.00,VWS V14.01,2013-03-10 23:40:00,
2013-03-10 19:45:00,64.6,42.2,29.83,SSE,160,10.5,10.5,44,0.00,,,0.00,VWS V14.01,2013-03-10 23:45:00,
2013-03-10 19:50:00,64.4,42.0,29.81,SSE,153,4.5,6.0,44,0.00,,,0.00,VWS V14.01,2013-03-10 23:50:00,
2013-03-10 19:55:00,64.3,41.9,29.81,SSW,194,6.0,7.5,44,0.00,,,0.00,VWS V14.01,2013-03-10 23:55:00,
2013-03-10 20:00:00,64.1,41.8,29.82,WSW,246,4.5,9.0,44,0.00,,,0.00,VWS V14.01,2013-03-11 00:00:00,
2013-03-10 20:05:00,64.0,42.3,29.83,SSE,160,4.5,6.0,45,0.00,,,0.00,VWS V14.01,2013-03-11 00:05:00,
2013-03-10 20:10:00,63.9,42.2,29.83,SW,220,3.0,7.5,45,0.00,,,0.00,VWS V14.01,2013-03-11 00:10:00,
2013-03-10 20:15:00,63.8,42.1,29.83,WSW,254,7.5,7.5,45,0.00,,,0.00,VWS V14.01,2013-03-11 00:15:00,
2013-03-10 20:20:00,63.7,42.0,29.82,SSW,196,1.5,4.5,45,0.00,,,0.00,VWS V14.01,2013-03-11 00:20:00,
2013-03-10 20:25:00,63.6,41.9,29.82,SSW,196,4.5,7.5,45,0.00,,,0.00,VWS V14.01,2013-03-11 00:25:00,
2013-03-10 20:30:00,63.6,42.5,29.82,SSW,201,3.0,6.0,46,0.00,,,0.00,VWS V14.01,2013-03-11 00:30:00,
2013-03-10 20:35:00,63.5,42.4,29.82,ENE,76,4.5,4.5,46,0.00,,,0.00,VWS V14.01,2013-03-11 00:35:00,
2013-03-10 20:40:00,63.3,42.2,29.83,SW,216,1.5,3.0,46,0.00,,,0.00,VWS V14.01,2013-03-11 00:40:00,
2013-03-10 20:45:00,63.1,42.0,29.82,South,179,3.0,7.5,46,0.00,,,0.00,VWS V14.01,2013-03-11 00:45:00,
2013-03-10 20:50:00,62.9,42.4,29.81,ESE,116,4.5,4.5,47,0.00,,,0.00,VWS V14.01,2013-03-11 00:50:00,
2013-03-10 20:55:00,62.8,42.3,29.82,East,96,3.0,13.5,47,0.00,,,0.00,VWS V14.01,2013-03-11 00:55:00,
2013-03-10 21:00:00,62.7,42.2,29.82,SE,144,4.5,4.5,47,0.00,,,0.00,VWS V14.01,2013-03-11 01:00:00,
2013-03-10 21:04:00,62.6,42.1,29.83,SSW,201,1.5,4.5,47,0.00,,,0.00,VWS V14.01,2013-03-11 01:04:00,
2013-03-10 21:09:00,62.5,42.6,29.82,SW,226,1.5,1.5,48,0.00,,,0.00,VWS V14.01,2013-03-11 01:09:00,
2013-03-10 21:14:00,62.4,42.5,29.82,South,188,4.5,6.0,48,0.00,,,0.00,VWS V14.01,2013-03-11 01:14:00,
2013-03-10 21:19:00,62.1,42.2,29.82,South,185,1.5,6.0,48,0.00,,,0.00,VWS V14.01,2013-03-11 01:19:00,
2013-03-10 21:24:00,62.0,42.6,29.82,SE,127,1.5,1.5,49,0.00,,,0.00,VWS V14.01,2013-03-11 01:24:00,
2013-03-10 21:30:00,61.8,42.5,29.81,SE,146,1.5,1.5,49,0.00,,,0.00,VWS V14.01,2013-03-11 01:30:00,
2013-03-10 21:34:00,61.6,42.3,29.82,SSW,192,3.0,4.5,49,0.00,,,0.00,VWS V14.01,2013-03-11 01:34:00,
2013-03-10 21:40:00,61.6,42.3,29.82,SSE,164,9.0,9.0,49,0.00,,,0.00,VWS V14.01,2013-03-11 01:40:00,
2013-03-10 21:44:00,61.7,42.4,29.83,South,191,4.5,6.0,49,0.00,,,0.00,VWS V14.01,2013-03-11 01:44:00,
2013-03-10 21:49:00,61.9,42.5,29.83,South,185,4.5,6.0,49,0.00,,,0.00,VWS V14.01,2013-03-11 01:49:00,
2013-03-10 21:54:00,61.8,42.5,29.83,SSW,194,4.5,6.0,49,0.00,,,0.00,VWS V14.01,2013-03-11 01:54:00,
2013-03-10 21:59:00,61.8,42.5,29.83,ESE,108,4.5,6.0,49,0.00,,,0.00,VWS V14.01,2013-03-11 01:59:00,
2013-03-10 22:04:00,61.8,43.0,29.83,SSW,199,7.5,7.5,50,0.00,,,0.00,VWS V14.01,2013-03-11 02:04:00,
2013-03-10 22:09:00,61.7,43.4,29.82,East,89,1.5,3.0,51,0.00,,,0.00,VWS V14.01,2013-03-11 02:09:00,
2013-03-10 22:14:00,61.3,44.0,29.82,SSE,151,1.5,6.0,53,0.00,,,0.00,VWS V14.01,2013-03-11 02:14:00,
2013-03-10 22:19:00,60.9,44.2,29.82,ESE,104,6.0,6.0,54,0.00,,,0.00,VWS V14.01,2013-03-11 02:19:00,
2013-03-10 22:24:00,60.7,43.5,29.83,ESE,110,7.5,10.5,53,0.00,,,0.00,VWS V14.01,2013-03-11 02:24:00,
2013-03-10 22:29:00,60.5,44.3,29.83,East,96,1.5,3.0,55,0.00,,,0.00,VWS V14.01,2013-03-11 02:29:00,
2013-03-10 22:34:00,60.3,44.1,29.83,SSE,159,1.5,4.5,55,0.00,,,0.00,VWS V14.01,2013-03-11 02:34:00,
2013-03-10 22:39:00,60.2,44.5,29.83,SW,231,1.5,1.5,56,0.00,,,0.00,VWS V14.01,2013-03-11 02:39:00,
2013-03-10 22:44:00,60.1,43.9,29.83,SW,230,4.5,4.5,55,0.00,,,0.00,VWS V14.01,2013-03-11 02:44:00,
2013-03-10 22:49:00,60.1,43.9,29.83,SSE,153,3.0,4.5,55,0.00,,,0.00,VWS V14.01,2013-03-11 02:49:00,
2013-03-10 22:54:00,60.2,44.0,29.83,SSE,168,1.5,3.0,55,0.00,,,0.00,VWS V14.01,2013-03-11 02:54:00,
2013-03-10 22:59:00,60.3,44.1,29.83,SSE,161,1.5,3.0,55,0.00,,,0.00,VWS V14.01,2013-03-11 02:59:00,
2013-03-10 23:04:00,60.3,44.1,29.83,ESE,111,1.5,1.5,55,0.00,,,0.00,VWS V14.01,2013-03-11 03:04:00,
2013-03-10 23:09:00,60.2,44.5,29.83,ESE,119,1.5,3.0,56,0.00,,,0.00,VWS V14.01,2013-03-11 03:09:00,
2013-03-10 23:14:00,59.9,44.2,29.83,SE,125,1.5,1.5,56,0.00,,,0.00,VWS V14.01,2013-03-11 03:14:00,
2013-03-10 23:19:00,59.7,44.0,29.83,SW,236,1.5,4.5,56,0.00,,,0.00,VWS V14.01,2013-03-11 03:19:00,
2013-03-10 23:24:00,59.9,43.7,29.83,SSE,157,4.5,4.5,55,0.00,,,0.00,VWS V14.01,2013-03-11 03:24:00,
2013-03-10 23:29:00,60.1,44.4,29.83,SSW,199,1.5,1.5,56,0.00,,,0.00,VWS V14.01,2013-03-11 03:29:00,
2013-03-10 23:34:00,59.9,45.1,29.84,SSW,213,1.5,3.0,58,0.01,,,0.01,VWS V14.01,2013-03-11 03:34:00,
2013-03-10 23:39:00,59.4,45.1,29.83,SSE,156,1.5,3.0,59,0.01,,,0.01,VWS V14.01,2013-03-11 03:39:00,
2013-03-10 23:44:00,59.0,45.2,29.82,SSE,153,3.0,3.0,60,0.01,,,0.01,VWS V14.01,2013-03-11 03:44:00,
2013-03-10 23:49:00,58.7,45.3,29.82,ESE,123,1.5,1.5,61,0.01,,,0.01,VWS V14.01,2013-03-11 03:49:00,
2013-03-10 23:54:00,58.3,44.9,29.82,SE,134,3.0,4.5,61,0.01,,,0.01,VWS V14.01,2013-03-11 03:54:00,
2013-03-10 23:59:00,58.9,43.7,29.82,South,178,6.0,7.5,57,0.01,,,0.01,VWS V14.01,2013-03-11 03:59:00,